Wall, SD (57790)

7:21 PM MDT on July 28, 2015 (GMT -0600)
NonFedAWOS | | Change Station
CLOSE
Current Station
Personal Weather Station
Location: Wall, SD
Elevation: 2812 ft
Nearby Weather Stations

Elev 2812 ft 44.00 °N, 102.25 °W | Updated 46 minutes ago

Clear
Clear
75 °F
Feels Like 77 °F
N
16
Wind Variable Wind from WNW
Gusts 27.0 mph

Today
High -- | Low -- °F
--% Chance of Precip.
Yesterday
High -- | Low -- °F
Precip. -- in
5:32 AM 8:17 PM
Waxing Gibbous, 92% visible
Pressure 29.98 in
Visibility 10.0 miles
Clouds Clear
Heat Index 77 °F
Dew Point 45 °F
Humidity 34%
Rainfall in
Snow Depth Not available.
UV 1 out of 12
Pollen 7.00 out of 12
Air Quality Not available.
Flu Activity Not available.
METAR KPHP 290055Z AUTO 32013G22KT 10SM CLR 24/07 A3002 RMK AO2 SLP151 T02440072

More Conditions Fewer Conditions

Pressure 29.98 in
Visibility 10.0 miles
Clouds Clear
Heat Index 77 °F
Dew Point 45 °F
Humidity 34%
Rainfall in
Snow Depth Not available.
UV 1 out of 12
Pollen 7.00 out of 12
Air Quality Not available.
Flu Activity Not available.
METAR KPHP 290055Z AUTO 32013G22KT 10SM CLR 24/07 A3002 RMK AO2 SLP151 T02440072

More Conditions Fewer Conditions

10-Day Weather Forecast

×

Almanac

Astronomy

Jul. 28, 2015 Rise Set
Actual Time
Civil Twilight
Nautical Twilight
Astronomical Twilight
Moon
Length of Visible Light
Length of Day
Tomorrow will be .
, % of the Moon is Illuminated

Today's Extremes

State Highs State Lows

Community

WunderPhotos

Upload Photos

1,841,995 photos uploaded!

WunderBlogs® & News

Nearby

Air Quality

  Air Quality AQ Index Pollutant
Not available.

Snow Depth

Station Depth Elevation

Earthquake Activity

City Distance Mag. Time & Date
Minimum magnitude displayed is 2.5.

Coastal Water Temperatures

Place Temperature

Stations

Nearby Weather Stations

Station Location Temp. Windchill Dew Point Humidity Wind Precip. Elev Updated Type